createdAt,value
2023-08-03T00:02:06.328Z,2.33
2023-08-03T00:05:09.274Z,2.30
2023-08-03T00:08:11.717Z,2.00
2023-08-03T00:11:14.456Z,3.43
2023-08-03T00:14:16.855Z,3.78
2023-08-03T00:17:19.565Z,3.42
2023-08-03T00:20:22.061Z,5.80
2023-08-03T00:23:24.728Z,6.30
2023-08-03T00:26:27.112Z,2.57
2023-08-03T00:29:30.510Z,2.83
2023-08-03T00:32:32.861Z,3.70
2023-08-03T00:35:35.518Z,3.30
2023-08-03T00:38:37.900Z,2.50
2023-08-03T00:41:40.656Z,3.83
2023-08-03T00:44:43.044Z,2.62
2023-08-03T00:47:45.682Z,3.12
2023-08-03T00:50:48.140Z,3.97
2023-08-03T00:53:50.766Z,2.60
2023-08-03T00:56:53.156Z,3.00
2023-08-03T00:59:56.252Z,2.90
2023-08-03T01:02:58.666Z,3.53
2023-08-03T01:06:01.457Z,3.78
2023-08-03T01:09:07.232Z,2.63
2023-08-03T01:12:09.938Z,2.37
2023-08-03T01:15:12.383Z,2.58
2023-08-03T01:18:15.247Z,3.83
2023-08-03T01:21:19.109Z,2.70
2023-08-03T01:24:22.122Z,4.10
2023-08-03T01:27:24.544Z,2.43
2023-08-03T01:30:27.404Z,2.80
2023-08-03T01:33:29.826Z,2.87
2023-08-03T01:36:32.546Z,2.53
2023-08-03T01:39:34.893Z,3.30
2023-08-03T01:42:38.032Z,3.17
2023-08-03T01:45:40.399Z,3.20
2023-08-03T01:48:43.020Z,4.50
2023-08-03T01:51:45.964Z,3.20
2023-08-03T01:54:48.947Z,4.63
2023-08-03T01:57:51.311Z,4.07
2023-08-03T02:00:53.982Z,3.70
2023-08-03T02:03:56.805Z,3.45
2023-08-03T02:07:18.052Z,3.30
2023-08-03T02:10:22.063Z,4.13
2023-08-03T02:13:24.461Z,3.43
2023-08-03T02:16:27.174Z,3.17
2023-08-03T02:19:30.022Z,4.10
2023-08-03T02:22:32.395Z,3.28
2023-08-03T02:25:35.142Z,4.10
2023-08-03T02:28:37.622Z,3.10
2023-08-03T02:31:40.727Z,3.10
2023-08-03T02:34:43.473Z,3.28
2023-08-03T02:37:46.160Z,4.70
2023-08-03T02:40:49.365Z,2.80
2023-08-03T02:43:52.433Z,4.03
2023-08-03T02:46:55.774Z,4.68
2023-08-03T02:49:58.478Z,5.15
2023-08-03T02:53:00.943Z,3.50
2023-08-03T02:56:03.677Z,4.40
2023-08-03T02:59:07.914Z,3.27
2023-08-03T03:02:11.066Z,3.62
2023-08-03T03:05:13.818Z,5.05
2023-08-03T03:08:17.767Z,4.50
2023-08-03T03:11:20.804Z,2.87
2023-08-03T03:14:26.650Z,3.47
2023-08-03T03:17:29.066Z,4.18
2023-08-03T03:20:33.953Z,4.80
2023-08-03T03:23:36.485Z,3.65
2023-08-03T03:26:40.293Z,6.77
2023-08-03T03:29:42.677Z,5.20
2023-08-03T03:32:46.984Z,2.42
2023-08-03T03:35:49.378Z,2.80
2023-08-03T03:38:52.335Z,2.90
2023-08-03T03:41:54.740Z,4.00
2023-08-03T03:44:57.651Z,4.50
2023-08-03T03:48:01.171Z,4.70
2023-08-03T03:51:05.776Z,5.53
2023-08-03T03:54:08.491Z,3.03
2023-08-03T03:57:11.167Z,2.90
2023-08-03T04:00:13.662Z,4.83
2023-08-03T04:03:17.016Z,2.97
2023-08-03T04:06:19.850Z,4.35
2023-08-03T04:09:22.273Z,3.90
2023-08-03T04:12:24.981Z,3.23
2023-08-03T04:15:27.418Z,3.70
2023-08-03T04:18:30.117Z,3.22
2023-08-03T04:21:32.558Z,5.72
2023-08-03T04:24:35.309Z,5.82
2023-08-03T04:27:38.027Z,4.20
2023-08-03T04:30:41.877Z,4.80
2023-08-03T04:33:44.334Z,4.32
2023-08-03T04:36:48.773Z,4.65
2023-08-03T04:39:51.709Z,4.68
2023-08-03T04:42:54.607Z,8.60
2023-08-03T04:45:57.130Z,4.13
2023-08-03T04:48:59.933Z,4.20
2023-08-03T04:52:04.800Z,3.47
2023-08-03T04:55:07.773Z,4.50
2023-08-03T04:58:10.167Z,3.80
2023-08-03T05:01:13.641Z,3.23
2023-08-03T05:04:16.266Z,3.70
2023-08-03T05:07:20.100Z,3.15
2023-08-03T05:10:22.845Z,3.30
2023-08-03T05:13:26.252Z,3.07
2023-08-03T05:16:29.812Z,5.63
2023-08-03T05:19:32.556Z,4.05
2023-08-03T05:22:34.934Z,6.50
2023-08-03T05:25:37.587Z,3.62
2023-08-03T05:28:40.103Z,4.03
2023-08-03T05:31:43.086Z,3.67
2023-08-03T05:34:45.742Z,2.20
2023-08-03T05:37:48.397Z,6.15
2023-08-03T05:40:50.789Z,4.32
2023-08-03T05:43:53.580Z,2.97
2023-08-03T05:46:57.797Z,3.43
2023-08-03T05:50:05.692Z,3.08
2023-08-03T05:53:10.431Z,5.45
2023-08-03T05:56:13.349Z,3.03
2023-08-03T05:59:21.720Z,3.93
2023-08-03T06:02:34.823Z,5.03
2023-08-03T06:05:52.272Z,3.20
2023-08-03T06:08:58.829Z,3.70
2023-08-03T06:15:07.090Z,2.40
2023-08-03T06:18:12.823Z,3.03
2023-08-03T06:21:16.622Z,3.67
2023-08-03T06:24:22.614Z,3.92
2023-08-03T06:27:25.024Z,3.15
2023-08-03T06:30:27.763Z,2.77
2023-08-03T06:33:30.142Z,3.90
2023-08-03T06:36:33.214Z,4.15
2023-08-03T06:39:35.603Z,3.62
2023-08-03T06:42:39.290Z,3.15
2023-08-03T06:45:42.474Z,3.13
2023-08-03T06:48:45.188Z,3.73
2023-08-03T06:51:47.900Z,3.40
2023-08-03T06:54:50.706Z,4.32
2023-08-03T06:57:53.750Z,2.95
2023-08-03T07:00:56.537Z,2.67
2023-08-03T07:03:58.953Z,2.77
2023-08-03T07:07:01.739Z,2.70
2023-08-03T07:10:04.598Z,2.50
2023-08-03T07:13:07.508Z,3.00
2023-08-03T07:16:10.432Z,2.07
2023-08-03T07:19:14.310Z,2.33
2023-08-03T07:22:16.784Z,4.03
2023-08-03T07:25:19.560Z,3.70
2023-08-03T07:28:22.105Z,2.25
2023-08-03T07:31:26.134Z,2.20
2023-08-03T07:34:28.600Z,3.07
2023-08-03T07:37:31.298Z,1.90
2023-08-03T07:40:33.671Z,2.28
2023-08-03T07:43:36.305Z,1.92
2023-08-03T07:46:38.987Z,2.40
2023-08-03T07:49:41.878Z,2.57
2023-08-03T07:52:44.294Z,2.58
2023-08-03T07:55:46.904Z,2.58
2023-08-03T07:58:50.546Z,2.65
2023-08-03T08:01:53.269Z,2.73
2023-08-03T08:04:55.951Z,3.27
2023-08-03T08:07:58.403Z,2.20
2023-08-03T08:11:11.887Z,2.53
2023-08-03T08:14:15.564Z,2.58
2023-08-03T08:17:18.381Z,2.37
2023-08-03T08:20:20.935Z,3.77
2023-08-03T08:23:23.648Z,3.35
2023-08-03T08:26:26.547Z,1.83
2023-08-03T08:29:29.542Z,2.55
2023-08-03T08:32:32.095Z,2.07
2023-08-03T08:35:34.813Z,3.10
2023-08-03T08:38:37.285Z,2.05
2023-08-03T08:41:42.392Z,2.92
2023-08-03T08:44:45.187Z,1.92
2023-08-03T08:47:48.270Z,3.17
2023-08-03T08:57:08.497Z,4.37
2023-08-03T09:00:14.738Z,2.30
2023-08-03T09:03:17.314Z,2.93
2023-08-03T09:06:25.106Z,3.53
2023-08-03T09:09:35.226Z,3.65
2023-08-03T09:12:39.889Z,4.50
2023-08-03T09:15:42.290Z,3.83
2023-08-03T09:18:45.808Z,4.07
2023-08-03T09:25:09.029Z,3.10
2023-08-03T09:37:46.138Z,3.20
2023-08-03T09:40:50.340Z,3.28
2023-08-03T09:43:53.100Z,3.25
2023-08-03T09:46:56.136Z,4.20
2023-08-03T09:49:58.935Z,5.00
2023-08-03T09:53:15.802Z,5.03
2023-08-03T09:56:21.949Z,4.28
2023-08-03T09:59:25.742Z,4.32
2023-08-03T10:05:40.209Z,4.10
2023-08-03T10:09:09.112Z,4.27
2023-08-03T10:12:21.098Z,7.32
2023-08-03T10:15:23.702Z,3.90
2023-08-03T10:18:49.374Z,4.03
2023-08-03T10:21:48.801Z,4.00
2023-08-03T10:25:21.172Z,7.23
2023-08-03T10:28:41.564Z,4.57
2023-08-03T10:31:55.740Z,4.62
2023-08-03T10:35:36.520Z,4.78
2023-08-03T10:38:43.095Z,3.10
2023-08-03T10:41:51.828Z,3.03
2023-08-03T10:44:55.450Z,4.00
2023-08-03T10:48:02.827Z,4.10
2023-08-03T10:51:05.819Z,2.37
2023-08-03T10:54:08.203Z,3.97
2023-08-03T10:57:13.202Z,4.30
2023-08-03T11:00:15.661Z,3.25
2023-08-03T11:03:18.450Z,3.50
2023-08-03T11:06:21.522Z,4.47
2023-08-03T11:09:24.209Z,3.17
2023-08-03T11:12:28.036Z,3.13
2023-08-03T11:15:30.713Z,2.62
2023-08-03T11:18:35.144Z,3.62
2023-08-03T11:21:37.745Z,1.65
2023-08-03T11:24:40.432Z,2.23
2023-08-03T11:27:43.252Z,1.63
2023-08-03T11:30:46.248Z,2.95
2023-08-03T11:33:55.266Z,2.80
2023-08-03T11:36:57.934Z,3.28
2023-08-03T11:40:02.034Z,3.30
2023-08-03T11:43:05.320Z,2.80
2023-08-03T11:46:08.464Z,2.17
2023-08-03T11:49:14.391Z,3.62
2023-08-03T11:52:20.730Z,2.60
2023-08-03T11:55:49.379Z,3.10
2023-08-03T11:58:52.245Z,2.10
2023-08-03T12:01:54.743Z,2.90
2023-08-03T12:05:10.842Z,1.77
2023-08-03T12:08:22.581Z,4.10
2023-08-03T12:11:25.623Z,2.20
2023-08-03T12:14:28.363Z,2.03
2023-08-03T12:17:32.007Z,2.58
2023-08-03T12:20:37.037Z,2.72
2023-08-03T12:23:39.887Z,3.03
2023-08-03T12:26:42.272Z,1.90
2023-08-03T12:29:45.011Z,3.00
2023-08-03T12:32:47.394Z,3.47
2023-08-03T12:35:50.085Z,5.68
2023-08-03T12:38:52.558Z,3.33
2023-08-03T12:41:56.329Z,3.63
2023-08-03T12:44:58.677Z,3.93
2023-08-03T12:48:16.698Z,3.58
2023-08-03T12:51:20.770Z,3.53
2023-08-03T12:54:24.145Z,4.25
2023-08-03T12:57:26.841Z,4.43
2023-08-03T13:00:29.761Z,3.93
2023-08-03T13:03:32.123Z,2.45
2023-08-03T13:06:34.819Z,2.22
2023-08-03T13:09:40.044Z,2.72
2023-08-03T13:12:44.429Z,2.97
2023-08-03T13:15:48.081Z,2.40
2023-08-03T13:18:50.892Z,2.15
2023-08-03T13:21:53.342Z,3.40
2023-08-03T13:24:55.952Z,3.33
2023-08-03T13:27:58.290Z,2.93
2023-08-03T13:31:01.184Z,2.80
2023-08-03T13:34:03.647Z,3.35
2023-08-03T13:37:06.934Z,5.93
2023-08-03T13:40:10.049Z,4.60
2023-08-03T13:43:12.734Z,4.13
2023-08-03T13:46:15.118Z,5.00
2023-08-03T13:49:19.673Z,2.30
2023-08-03T13:52:22.123Z,2.83
2023-08-03T13:55:24.758Z,2.95
2023-08-03T13:58:30.088Z,2.57
2023-08-03T14:02:02.105Z,3.10
2023-08-03T14:05:06.340Z,4.20
2023-08-03T14:08:09.159Z,2.22
2023-08-03T14:23:33.748Z,4.20
2023-08-03T14:26:36.177Z,2.45
2023-08-03T14:29:39.554Z,2.40
2023-08-03T14:32:42.562Z,2.40
2023-08-03T14:35:45.214Z,3.58
2023-08-03T14:38:47.729Z,2.05
2023-08-03T14:41:50.414Z,2.30
2023-08-03T14:44:52.979Z,1.93
2023-08-03T14:47:58.652Z,2.20
2023-08-03T14:51:01.714Z,3.87
2023-08-03T14:54:04.511Z,3.35
2023-08-03T14:57:07.396Z,3.17
2023-08-03T15:00:11.577Z,2.13
2023-08-03T15:03:14.991Z,2.73
2023-08-03T15:06:18.496Z,1.80
2023-08-03T15:09:21.460Z,1.50
2023-08-03T15:12:24.354Z,2.12
2023-08-03T15:18:32.810Z,3.13
2023-08-03T15:21:35.866Z,2.05
2023-08-03T15:24:39.710Z,2.70
2023-08-03T15:27:58.142Z,2.55
2023-08-03T15:31:03.908Z,2.30
2023-08-03T15:34:09.095Z,4.27
2023-08-03T15:37:13.221Z,2.78
2023-08-03T15:40:18.658Z,3.65
2023-08-03T15:43:22.410Z,1.87
2023-08-03T15:46:32.893Z,2.70
2023-08-03T15:49:48.022Z,2.87
2023-08-03T15:59:07.292Z,3.25
2023-08-03T16:02:09.961Z,2.47
2023-08-03T16:08:15.512Z,2.53
2023-08-03T16:11:30.023Z,2.10
2023-08-03T16:14:32.804Z,1.50
2023-08-03T16:17:35.523Z,3.03
2023-08-03T16:20:38.247Z,3.37
2023-08-03T16:23:41.816Z,2.30
2023-08-03T16:26:45.342Z,1.83
2023-08-03T16:29:50.713Z,2.83
2023-08-03T16:32:53.401Z,2.63
2023-08-03T16:35:56.209Z,3.77
2023-08-03T16:38:58.560Z,2.62
2023-08-03T16:42:01.731Z,2.17
2023-08-03T16:45:04.519Z,3.75
2023-08-03T16:48:07.847Z,2.13
2023-08-03T16:51:10.235Z,4.57
2023-08-03T16:54:12.904Z,2.67
2023-08-03T16:57:34.047Z,3.00
2023-08-03T17:00:36.728Z,4.87
2023-08-03T17:03:39.561Z,4.50
2023-08-03T17:06:42.375Z,5.40
2023-08-03T17:09:44.996Z,3.50
2023-08-03T17:12:47.843Z,5.93
2023-08-03T17:15:50.279Z,2.47
2023-08-03T17:18:52.973Z,2.23
2023-08-03T17:21:55.527Z,2.10
2023-08-03T17:24:58.246Z,3.55
2023-08-03T17:28:01.183Z,1.48
2023-08-03T17:31:07.843Z,2.12
2023-08-03T17:34:10.429Z,3.63
2023-08-03T17:37:14.835Z,5.63
2023-08-03T17:40:18.066Z,4.10
2023-08-03T17:43:20.715Z,3.00
2023-08-03T17:46:23.083Z,2.05
2023-08-03T17:49:27.600Z,2.00
2023-08-03T17:52:31.504Z,1.97
2023-08-03T17:55:34.206Z,3.35
2023-08-03T17:58:36.603Z,1.65
2023-08-03T18:01:39.284Z,2.70
2023-08-03T18:04:42.429Z,2.23
2023-08-03T18:07:45.419Z,2.87
2023-08-03T18:10:54.246Z,3.90
2023-08-03T18:13:56.643Z,1.73
2023-08-03T18:16:59.404Z,2.42
2023-08-03T18:20:02.094Z,4.30
2023-08-03T18:23:06.704Z,4.23
2023-08-03T18:26:09.130Z,6.47
2023-08-03T18:29:11.999Z,2.60
2023-08-03T18:32:14.445Z,5.53
2023-08-03T18:35:17.095Z,5.13
2023-08-03T18:38:19.542Z,1.73
2023-08-03T18:41:23.737Z,3.47
2023-08-03T18:44:26.143Z,3.53
2023-08-03T18:47:28.875Z,1.98
2023-08-03T18:50:31.392Z,3.17
2023-08-03T18:53:37.071Z,2.60
2023-08-03T18:56:41.888Z,2.83
2023-08-03T18:59:46.128Z,2.58
2023-08-03T19:02:48.647Z,4.78
2023-08-03T19:05:51.377Z,2.90
2023-08-03T19:08:55.694Z,1.90
2023-08-03T19:11:58.473Z,2.28
2023-08-03T19:15:04.002Z,2.90
2023-08-03T19:18:06.797Z,3.15
2023-08-03T19:21:09.773Z,2.00
2023-08-03T19:24:13.922Z,2.43
2023-08-03T19:27:16.503Z,1.50
2023-08-03T19:30:19.994Z,4.97
2023-08-03T19:33:22.393Z,2.62
2023-08-03T19:36:25.020Z,2.83
2023-08-03T19:39:28.331Z,3.43
2023-08-03T19:42:31.171Z,230.70
2023-08-03T19:45:34.525Z,301.88
2023-08-03T19:48:37.332Z,309.23
2023-08-03T20:02:09.617Z,98.30
2023-08-03T20:07:39.288Z,45.70
2023-08-03T20:10:43.727Z,53.80
2023-08-03T20:16:52.114Z,106.15
2023-08-03T20:19:54.452Z,86.43
2023-08-03T20:22:57.124Z,80.57
2023-08-03T20:26:03.196Z,78.53
2023-08-03T20:29:06.353Z,57.80
2023-08-03T20:32:08.804Z,28.77
2023-08-03T20:35:11.659Z,15.80
2023-08-03T20:38:14.098Z,8.73
2023-08-03T20:45:00.148Z,5.45
2023-08-03T20:47:49.032Z,5.72
2023-08-03T20:53:58.750Z,4.73
2023-08-03T20:57:01.152Z,3.17
2023-08-03T21:00:04.224Z,2.58
2023-08-03T21:03:06.653Z,3.22
2023-08-03T21:06:09.411Z,5.00
2023-08-03T21:09:12.053Z,3.07
2023-08-03T21:12:16.392Z,2.47
2023-08-03T21:15:20.093Z,1.90
2023-08-03T21:21:28.670Z,5.70
2023-08-03T21:24:31.352Z,4.50
2023-08-03T21:27:33.791Z,2.87
2023-08-03T21:30:36.459Z,3.53
2023-08-03T21:33:39.006Z,3.03
2023-08-03T21:36:41.931Z,2.90
2023-08-03T21:39:44.272Z,2.57
2023-08-03T21:42:47.676Z,2.70
2023-08-03T21:45:50.970Z,3.25
2023-08-03T21:48:54.460Z,3.60
2023-08-03T21:51:56.893Z,3.62
2023-08-03T21:54:59.952Z,4.30
2023-08-03T21:58:02.505Z,4.43
2023-08-03T22:01:09.266Z,7.25
2023-08-03T22:04:11.981Z,4.40
2023-08-03T22:07:14.369Z,4.50
2023-08-03T22:10:17.799Z,3.30
2023-08-03T22:13:20.316Z,2.40
2023-08-03T22:16:23.441Z,3.50
2023-08-03T22:19:25.892Z,4.57
2023-08-03T22:22:28.584Z,6.15
2023-08-03T22:25:30.979Z,6.13
2023-08-03T22:28:33.609Z,3.63
2023-08-03T22:31:36.262Z,4.07
2023-08-03T22:34:38.920Z,5.25
2023-08-03T22:37:41.396Z,5.07
2023-08-03T22:40:44.233Z,3.07
2023-08-03T22:43:46.702Z,3.73
2023-08-03T22:46:49.359Z,4.15
2023-08-03T22:49:51.761Z,3.47
2023-08-03T22:52:54.394Z,3.25
2023-08-03T22:56:02.234Z,3.30
2023-08-03T22:59:04.925Z,4.43
2023-08-03T23:02:07.388Z,3.65
2023-08-03T23:05:10.055Z,6.20
2023-08-03T23:08:12.485Z,3.45
2023-08-03T23:11:15.243Z,3.80
2023-08-03T23:14:17.646Z,3.47
2023-08-03T23:17:20.303Z,4.53
2023-08-03T23:20:22.683Z,3.80
2023-08-03T23:23:25.506Z,5.30
2023-08-03T23:26:27.871Z,4.77
2023-08-03T23:29:30.514Z,4.00
2023-08-03T23:32:33.502Z,4.82
2023-08-03T23:35:36.253Z,3.33
2023-08-03T23:38:38.601Z,6.75
2023-08-03T23:41:41.204Z,5.07
2023-08-03T23:44:43.625Z,2.77
2023-08-03T23:47:46.305Z,2.22
2023-08-03T23:50:48.688Z,3.85
2023-08-03T23:53:51.301Z,5.47
2023-08-03T23:59:57.612Z,4.30
